createdAt,value
2017-11-14T00:01:35.471Z,9.00
2017-11-14T00:04:03.771Z,9.00
2017-11-14T00:06:32.876Z,9.10
2017-11-14T00:09:01.971Z,9.10
2017-11-14T00:11:31.066Z,9.10
2017-11-14T00:14:00.142Z,9.10
2017-11-14T00:16:28.442Z,9.10
2017-11-14T00:18:57.536Z,9.10
2017-11-14T00:21:25.821Z,9.10
2017-11-14T00:23:54.118Z,9.10
2017-11-14T00:26:23.188Z,9.00
2017-11-14T00:28:51.500Z,9.00
2017-11-14T00:31:20.568Z,9.00
2017-11-14T00:33:48.890Z,8.90
2017-11-14T00:36:17.224Z,8.90
2017-11-14T00:38:45.654Z,8.80
2017-11-14T00:41:14.734Z,8.70
2017-11-14T00:43:43.812Z,8.70
2017-11-14T00:46:12.871Z,8.60
2017-11-14T00:48:41.174Z,8.60
2017-11-14T00:51:09.502Z,8.60
2017-11-14T00:53:38.567Z,8.60
2017-11-14T00:56:06.869Z,8.50
2017-11-14T00:58:35.177Z,8.50
2017-11-14T01:01:03.463Z,8.50
2017-11-14T01:03:31.774Z,8.60
2017-11-14T01:06:00.152Z,8.60
2017-11-14T01:08:28.460Z,8.60
2017-11-14T01:10:56.771Z,8.70
2017-11-14T01:13:25.847Z,8.70
2017-11-14T01:15:54.146Z,8.70
2017-11-14T01:18:22.482Z,8.70
2017-11-14T01:20:50.814Z,8.60
2017-11-14T01:23:19.875Z,8.50
2017-11-14T01:25:48.203Z,8.50
2017-11-14T01:28:17.409Z,8.40
2017-11-14T01:30:46.469Z,8.40
2017-11-14T01:33:14.783Z,8.40
2017-11-14T01:35:43.848Z,8.40
2017-11-14T01:38:12.158Z,8.40
2017-11-14T01:40:41.243Z,8.40
2017-11-14T01:43:09.567Z,8.40
2017-11-14T01:45:37.874Z,8.40
2017-11-14T01:48:06.173Z,8.40
2017-11-14T01:50:36.017Z,8.50
2017-11-14T01:53:05.090Z,8.50
2017-11-14T01:55:34.173Z,8.50
2017-11-14T01:58:02.627Z,8.50
2017-11-14T02:00:48.795Z,8.50
2017-11-14T02:03:17.849Z,8.60
2017-11-14T02:05:46.154Z,8.50
2017-11-14T02:08:15.361Z,8.50
2017-11-14T02:10:44.424Z,8.50
2017-11-14T02:13:12.759Z,8.50
2017-11-14T02:15:41.850Z,8.40
2017-11-14T02:18:10.983Z,8.40
2017-11-14T02:20:39.282Z,8.40
2017-11-14T02:23:07.574Z,8.40
2017-11-14T02:25:35.867Z,8.30
2017-11-14T02:28:04.159Z,8.30
2017-11-14T02:30:32.465Z,8.30
2017-11-14T02:33:01.526Z,8.40
2017-11-14T02:35:29.836Z,8.40
2017-11-14T02:37:58.900Z,8.40
2017-11-14T02:40:27.207Z,8.40
2017-11-14T02:42:56.317Z,8.40
2017-11-14T02:45:25.392Z,8.40
2017-11-14T02:47:53.837Z,8.30
2017-11-14T02:50:22.149Z,8.30
2017-11-14T02:52:50.459Z,8.30
2017-11-14T02:55:19.568Z,8.30
2017-11-14T02:57:48.679Z,8.30
2017-11-14T03:00:16.988Z,8.30
2017-11-14T03:02:45.293Z,8.30
2017-11-14T03:05:13.589Z,8.30
2017-11-14T03:07:43.403Z,8.30
2017-11-14T03:10:13.219Z,8.30
2017-11-14T03:12:41.512Z,8.30
2017-11-14T03:15:09.844Z,8.30
2017-11-14T03:17:38.140Z,8.40
2017-11-14T03:20:06.487Z,8.40
2017-11-14T03:22:34.818Z,8.40
2017-11-14T03:25:03.120Z,8.40
2017-11-14T03:27:32.211Z,8.50
2017-11-14T03:30:00.531Z,8.40
2017-11-14T03:32:28.853Z,8.40
2017-11-14T03:34:57.156Z,8.40
2017-11-14T03:37:25.451Z,8.50
2017-11-14T03:39:53.869Z,8.50
2017-11-14T03:42:22.175Z,8.50
2017-11-14T03:44:50.502Z,8.50
2017-11-14T03:47:19.624Z,8.50
2017-11-14T03:49:47.921Z,8.40
2017-11-14T03:52:16.237Z,8.50
2017-11-14T03:54:46.042Z,8.40
2017-11-14T03:57:14.336Z,8.40
2017-11-14T03:59:42.633Z,8.40
2017-11-14T04:02:10.956Z,8.40
2017-11-14T04:04:39.352Z,8.40
2017-11-14T04:07:07.661Z,8.30
2017-11-14T04:09:35.961Z,8.30
2017-11-14T04:12:04.268Z,8.30
2017-11-14T04:14:33.346Z,8.40
2017-11-14T04:17:02.392Z,8.50
2017-11-14T04:19:30.707Z,8.40
2017-11-14T04:21:59.019Z,8.50
2017-11-14T04:24:28.094Z,8.60
2017-11-14T04:26:56.448Z,8.60
2017-11-14T04:29:24.784Z,8.60
2017-11-14T04:31:53.848Z,8.70
2017-11-14T04:34:22.225Z,8.70
2017-11-14T04:36:50.537Z,8.70
2017-11-14T04:39:19.602Z,8.60
2017-11-14T04:41:47.899Z,8.60
2017-11-14T04:44:16.989Z,8.60
2017-11-14T04:46:45.349Z,8.60
2017-11-14T04:49:13.642Z,8.60
2017-11-14T04:51:41.973Z,8.60
2017-11-14T04:54:11.028Z,8.60
2017-11-14T04:56:39.322Z,8.60
2017-11-14T04:59:07.660Z,8.60
2017-11-14T05:01:35.961Z,8.60
2017-11-14T05:04:04.260Z,8.60
2017-11-14T05:06:33.326Z,8.70
2017-11-14T05:09:01.640Z,8.70
2017-11-14T05:11:29.940Z,8.70
2017-11-14T05:13:58.257Z,8.70
2017-11-14T05:16:26.546Z,8.70
2017-11-14T05:18:54.846Z,8.70
2017-11-14T05:21:23.147Z,8.70
2017-11-14T05:23:51.451Z,8.80
2017-11-14T05:26:19.751Z,8.80
2017-11-14T05:28:48.814Z,8.80
2017-11-14T05:31:17.120Z,8.80
2017-11-14T05:33:46.177Z,8.80
2017-11-14T05:36:14.458Z,8.80
2017-11-14T05:38:43.517Z,8.80
2017-11-14T05:41:11.844Z,8.80
2017-11-14T05:43:40.152Z,8.80
2017-11-14T05:46:09.228Z,8.80
2017-11-14T05:48:37.545Z,8.80
2017-11-14T05:51:06.645Z,8.80
2017-11-14T05:53:35.731Z,8.80
2017-11-14T05:56:04.828Z,8.80
2017-11-14T05:58:33.132Z,8.80
2017-11-14T06:01:02.240Z,8.80
2017-11-14T06:03:30.544Z,8.80
2017-11-14T06:05:58.840Z,8.70
2017-11-14T06:08:27.256Z,8.70
2017-11-14T06:10:55.542Z,8.70
2017-11-14T06:13:23.855Z,8.70
2017-11-14T06:15:52.139Z,8.70
2017-11-14T06:18:20.522Z,8.70
2017-11-14T06:20:48.843Z,8.80
2017-11-14T06:23:17.141Z,8.80
2017-11-14T06:25:45.453Z,8.70
2017-11-14T06:28:13.759Z,8.70
2017-11-14T06:30:42.057Z,8.70
2017-11-14T06:33:10.362Z,8.60
2017-11-14T06:35:38.676Z,8.60
2017-11-14T06:38:07.741Z,8.50
2017-11-14T06:40:36.047Z,8.50
2017-11-14T06:43:05.163Z,8.50
2017-11-14T06:45:33.482Z,8.50
2017-11-14T06:48:02.536Z,8.50
2017-11-14T06:50:31.584Z,8.50
2017-11-14T06:53:00.045Z,8.50
2017-11-14T06:55:28.336Z,8.50
2017-11-14T06:57:56.637Z,8.50
2017-11-14T07:00:24.930Z,8.40
2017-11-14T07:02:53.250Z,8.40
2017-11-14T07:05:22.318Z,8.30
2017-11-14T07:07:52.110Z,8.20
2017-11-14T07:10:20.430Z,8.30
2017-11-14T07:12:49.497Z,8.20
2017-11-14T07:15:17.803Z,8.20
2017-11-14T07:17:46.101Z,8.20
2017-11-14T07:20:14.419Z,8.20
2017-11-14T07:22:42.724Z,8.30
2017-11-14T07:25:11.062Z,8.30
2017-11-14T07:27:39.460Z,8.30
2017-11-14T07:30:07.795Z,8.30
2017-11-14T07:32:36.117Z,8.40
2017-11-14T07:35:04.438Z,8.40
2017-11-14T07:37:32.749Z,8.50
2017-11-14T07:40:01.821Z,8.70
2017-11-14T07:42:30.108Z,8.60
2017-11-14T07:44:58.404Z,8.80
2017-11-14T07:47:26.709Z,8.80
2017-11-14T07:49:55.048Z,8.90
2017-11-14T07:52:23.353Z,8.90
2017-11-14T07:54:52.425Z,8.90
2017-11-14T07:57:21.501Z,9.00
2017-11-14T07:59:49.826Z,8.90
2017-11-14T08:02:18.465Z,8.90
2017-11-14T08:04:46.763Z,8.90
2017-11-14T08:07:15.055Z,9.00
2017-11-14T08:09:43.361Z,9.00
2017-11-14T08:12:12.443Z,9.10
2017-11-14T08:14:40.739Z,9.10
2017-11-14T08:17:09.856Z,9.20
2017-11-14T08:19:38.914Z,9.30
2017-11-14T08:22:07.224Z,9.30
2017-11-14T08:24:37.121Z,9.40
2017-11-14T08:27:06.212Z,9.40
2017-11-14T08:29:34.602Z,9.40
2017-11-14T08:32:02.906Z,9.50
2017-11-14T08:34:32.104Z,9.60
2017-11-14T08:37:01.187Z,9.60
2017-11-14T08:39:30.276Z,9.70
2017-11-14T08:41:58.583Z,9.70
2017-11-14T08:44:26.917Z,9.70
2017-11-14T08:46:55.227Z,9.60
2017-11-14T08:49:24.318Z,9.70
2017-11-14T08:51:52.643Z,9.70
2017-11-14T08:54:21.716Z,9.80
2017-11-14T08:56:50.022Z,9.80
2017-11-14T08:59:19.088Z,9.90
2017-11-14T09:01:48.970Z,9.90
2017-11-14T09:04:17.315Z,10.00
2017-11-14T09:06:46.536Z,10.10
2017-11-14T09:09:14.849Z,10.10
2017-11-14T09:11:43.154Z,10.20
2017-11-14T09:14:11.467Z,10.20
2017-11-14T09:16:40.546Z,10.30
2017-11-14T09:19:08.866Z,10.30
2017-11-14T09:21:37.188Z,10.40
2017-11-14T09:24:05.503Z,10.40
2017-11-14T09:26:34.363Z,10.50
2017-11-14T09:29:02.691Z,10.60
2017-11-14T09:31:31.773Z,10.70
2017-11-14T09:34:00.096Z,10.70
2017-11-14T09:36:28.414Z,10.70
2017-11-14T09:38:56.724Z,10.60
2017-11-14T09:41:26.084Z,10.60
2017-11-14T09:43:54.408Z,10.60
2017-11-14T09:46:22.718Z,10.60
2017-11-14T09:48:51.124Z,10.50
2017-11-14T09:51:19.460Z,10.50
2017-11-14T09:53:48.632Z,10.40
2017-11-14T09:56:17.739Z,10.30
2017-11-14T09:58:47.644Z,10.30
2017-11-14T10:01:15.968Z,10.30
2017-11-14T10:03:45.039Z,10.30
2017-11-14T10:06:13.342Z,10.30
2017-11-14T10:08:42.444Z,10.30
2017-11-14T10:11:11.533Z,10.30
2017-11-14T10:13:39.855Z,10.30
2017-11-14T10:16:08.173Z,10.40
2017-11-14T10:18:36.505Z,10.40
2017-11-14T10:21:04.850Z,10.40
2017-11-14T10:23:33.161Z,10.40
2017-11-14T10:26:02.312Z,10.40
2017-11-14T10:28:30.703Z,10.30
2017-11-14T10:30:59.022Z,10.30
2017-11-14T10:33:28.179Z,10.30
2017-11-14T10:35:56.591Z,10.30
2017-11-14T10:38:24.910Z,10.40
2017-11-14T10:40:53.230Z,10.40
2017-11-14T10:43:21.685Z,10.50
2017-11-14T10:45:50.034Z,10.50
2017-11-14T10:48:19.164Z,10.60
2017-11-14T10:50:47.491Z,10.60
2017-11-14T10:53:15.860Z,10.70
2017-11-14T10:55:44.194Z,10.70
2017-11-14T10:58:12.509Z,10.60
2017-11-14T11:00:40.838Z,10.70
2017-11-14T11:03:09.980Z,10.80
2017-11-14T11:05:38.322Z,10.80
2017-11-14T11:08:07.408Z,10.90
2017-11-14T11:10:35.763Z,10.80
2017-11-14T11:13:04.093Z,10.90
2017-11-14T11:15:33.180Z,10.90
2017-11-14T11:18:01.559Z,10.90
2017-11-14T11:20:30.632Z,11.00
2017-11-14T11:22:58.955Z,11.00
2017-11-14T11:25:28.033Z,10.90
2017-11-14T11:27:56.358Z,10.90
2017-11-14T11:30:24.671Z,10.90
2017-11-14T11:32:53.924Z,10.90
2017-11-14T11:35:23.002Z,10.80
2017-11-14T11:37:51.314Z,10.80
2017-11-14T11:40:19.622Z,10.80
2017-11-14T11:42:48.024Z,10.60
2017-11-14T11:45:16.354Z,10.60
2017-11-14T11:47:44.759Z,10.50
2017-11-14T11:50:13.113Z,10.40
2017-11-14T11:52:41.423Z,10.30
2017-11-14T11:55:09.741Z,10.30
2017-11-14T11:57:38.066Z,10.20
2017-11-14T12:00:07.152Z,10.10
2017-11-14T12:02:36.218Z,10.10
2017-11-14T12:05:04.542Z,10.10
2017-11-14T12:07:33.766Z,10.10
2017-11-14T12:10:02.086Z,10.10
2017-11-14T12:12:30.408Z,10.10
2017-11-14T12:14:59.503Z,10.00
2017-11-14T12:17:28.600Z,10.00
2017-11-14T12:19:57.673Z,10.00
2017-11-14T12:22:26.064Z,10.00
2017-11-14T12:24:54.393Z,10.00
2017-11-14T12:27:23.120Z,10.00
2017-11-14T12:29:51.437Z,10.00
2017-11-14T12:32:20.532Z,10.10
2017-11-14T12:34:49.612Z,10.10
2017-11-14T12:37:17.927Z,10.10
2017-11-14T12:39:47.015Z,10.20
2017-11-14T12:42:16.123Z,10.10
2017-11-14T12:44:44.461Z,10.10
2017-11-14T12:47:12.771Z,10.10
2017-11-14T12:49:41.097Z,10.10
2017-11-14T12:52:09.416Z,10.00
2017-11-14T12:54:37.706Z,10.00
2017-11-14T12:57:06.088Z,10.00
2017-11-14T12:59:34.422Z,10.00
2017-11-14T13:02:02.749Z,10.10
2017-11-14T13:04:31.065Z,10.10
2017-11-14T13:07:00.145Z,10.10
2017-11-14T13:09:28.464Z,10.10
2017-11-14T13:11:56.771Z,10.20
2017-11-14T13:14:25.087Z,10.20
2017-11-14T13:16:53.509Z,10.20
2017-11-14T13:19:21.844Z,10.20
2017-11-14T13:21:50.161Z,10.30
2017-11-14T13:24:18.469Z,10.30
2017-11-14T13:26:46.811Z,10.30
2017-11-14T13:29:16.004Z,10.30
2017-11-14T13:31:44.367Z,10.30
2017-11-14T13:34:12.667Z,10.30
2017-11-14T13:36:40.997Z,10.40
2017-11-14T13:39:09.324Z,10.40
2017-11-14T13:41:37.694Z,10.50
2017-11-14T13:44:06.001Z,10.50
2017-11-14T13:46:35.130Z,10.60
2017-11-14T13:49:03.458Z,10.50
2017-11-14T13:51:31.819Z,10.60
2017-11-14T13:54:00.129Z,10.60
2017-11-14T13:56:28.453Z,10.60
2017-11-14T13:58:56.780Z,10.60
2017-11-14T14:01:25.105Z,10.60
2017-11-14T14:03:53.443Z,10.60
2017-11-14T14:06:21.772Z,10.70
2017-11-14T14:08:50.092Z,10.70
2017-11-14T14:11:18.402Z,10.80
2017-11-14T14:13:46.724Z,10.80
2017-11-14T14:16:15.027Z,10.80
2017-11-14T14:18:43.354Z,10.80
2017-11-14T14:21:11.701Z,10.90
2017-11-14T14:23:40.059Z,10.90
2017-11-14T14:26:08.361Z,10.90
2017-11-14T14:28:36.695Z,11.00
2017-11-14T14:31:05.785Z,11.00
2017-11-14T14:33:34.096Z,11.00
2017-11-14T14:36:02.439Z,11.00
2017-11-14T14:38:30.765Z,11.00
2017-11-14T14:40:59.070Z,11.00
2017-11-14T14:43:27.393Z,11.10
2017-11-14T14:45:55.708Z,11.10
2017-11-14T14:48:24.042Z,11.10
2017-11-14T14:50:52.344Z,11.10
2017-11-14T14:53:21.419Z,11.10
2017-11-14T14:55:49.731Z,11.10
2017-11-14T14:58:18.806Z,11.10
2017-11-14T15:00:47.145Z,11.10
2017-11-14T15:03:15.440Z,11.10
2017-11-14T15:05:43.745Z,11.10
2017-11-14T15:08:12.063Z,11.20
2017-11-14T15:10:41.160Z,11.20
2017-11-14T15:13:10.249Z,11.20
2017-11-14T15:15:39.300Z,11.20
2017-11-14T15:18:07.608Z,11.20
2017-11-14T15:20:35.918Z,11.20
2017-11-14T15:23:05.001Z,11.20
2017-11-14T15:25:33.319Z,11.20
2017-11-14T15:28:01.624Z,11.20
2017-11-14T15:30:30.699Z,11.20
2017-11-14T15:32:59.086Z,11.20
2017-11-14T15:35:28.174Z,11.30
2017-11-14T15:37:56.506Z,11.30
2017-11-14T15:40:24.824Z,11.30
2017-11-14T15:42:53.909Z,11.30
2017-11-14T15:45:23.002Z,11.30
2017-11-14T15:47:51.318Z,11.30
2017-11-14T15:50:19.666Z,11.30
2017-11-14T15:52:47.975Z,11.30
2017-11-14T15:55:17.067Z,11.30
2017-11-14T15:57:46.244Z,11.40
2017-11-14T16:00:14.565Z,11.30
2017-11-14T16:02:42.874Z,11.40
2017-11-14T16:05:11.216Z,11.40
2017-11-14T16:07:40.304Z,11.40
2017-11-14T16:10:09.381Z,11.40
2017-11-14T16:12:37.713Z,11.40
2017-11-14T16:15:06.037Z,11.40
2017-11-14T16:17:34.389Z,11.40
2017-11-14T16:20:02.704Z,11.40
2017-11-14T16:22:31.021Z,11.40
2017-11-14T16:25:00.105Z,11.40
2017-11-14T16:27:28.530Z,11.40
2017-11-14T16:29:56.852Z,11.40
2017-11-14T16:32:25.158Z,11.40
2017-11-14T16:34:53.485Z,11.40
2017-11-14T16:37:21.801Z,11.40
2017-11-14T16:39:50.130Z,11.50
2017-11-14T16:42:18.525Z,11.50
2017-11-14T16:44:46.911Z,11.50
2017-11-14T16:47:15.228Z,11.50
2017-11-14T16:49:43.605Z,11.50
2017-11-14T16:52:11.948Z,11.50
2017-11-14T16:54:40.274Z,11.50
2017-11-14T16:57:08.598Z,11.50
2017-11-14T16:59:37.721Z,11.60
2017-11-14T17:02:06.026Z,11.60
2017-11-14T17:04:34.364Z,11.60
2017-11-14T17:07:02.681Z,11.60
2017-11-14T17:09:31.014Z,11.60
2017-11-14T17:12:00.098Z,11.60
2017-11-14T17:14:28.486Z,11.60
2017-11-14T17:16:57.578Z,11.70
2017-11-14T17:19:25.880Z,11.70
2017-11-14T17:21:54.978Z,11.70
2017-11-14T17:24:24.096Z,11.70
2017-11-14T17:26:52.425Z,11.70
2017-11-14T17:29:20.742Z,11.70
2017-11-14T17:31:49.838Z,11.70
2017-11-14T17:34:18.951Z,11.70
2017-11-14T17:36:48.027Z,11.80
2017-11-14T17:39:16.358Z,11.70
2017-11-14T17:41:44.690Z,11.80
2017-11-14T17:44:13.017Z,11.80
2017-11-14T17:46:41.373Z,11.80
2017-11-14T17:49:10.491Z,11.90
2017-11-14T17:51:38.809Z,11.90
2017-11-14T17:54:07.122Z,11.90
2017-11-14T17:56:35.438Z,11.90
2017-11-14T17:59:03.758Z,11.90
2017-11-14T18:01:32.078Z,11.90
2017-11-14T18:04:01.186Z,12.00
2017-11-14T18:06:30.277Z,12.00
2017-11-14T18:08:59.393Z,12.00
2017-11-14T18:11:27.796Z,12.00
2017-11-14T18:13:56.173Z,12.00
2017-11-14T18:16:24.472Z,12.10
2017-11-14T18:18:52.794Z,12.10
2017-11-14T18:21:21.876Z,12.10
2017-11-14T18:23:50.185Z,12.10
2017-11-14T18:26:19.420Z,12.10
2017-11-14T18:28:47.724Z,12.10
2017-11-14T18:31:16.031Z,12.10
2017-11-14T18:33:44.340Z,12.10
2017-11-14T18:36:13.459Z,12.00
2017-11-14T18:38:41.762Z,12.00
2017-11-14T18:41:10.074Z,12.10
2017-11-14T18:43:38.389Z,12.00
2017-11-14T18:46:07.480Z,12.00
2017-11-14T18:48:36.587Z,12.00
2017-11-14T18:51:04.923Z,12.00
2017-11-14T18:53:33.245Z,11.90
2017-11-14T18:56:02.358Z,11.90
2017-11-14T18:58:30.696Z,11.90
2017-11-14T19:00:59.022Z,11.90
2017-11-14T19:03:27.350Z,11.90
2017-11-14T19:05:55.685Z,11.90
2017-11-14T19:08:24.013Z,11.90
2017-11-14T19:10:52.364Z,11.90
2017-11-14T19:13:20.666Z,11.90
2017-11-14T19:15:48.985Z,11.90
2017-11-14T19:18:18.128Z,11.90
2017-11-14T19:20:46.448Z,11.90
2017-11-14T19:23:14.847Z,11.80
2017-11-14T19:25:43.944Z,11.80
2017-11-14T19:28:12.279Z,11.80
2017-11-14T19:30:40.598Z,11.80
2017-11-14T19:33:08.931Z,11.80
2017-11-14T19:35:37.236Z,11.80
2017-11-14T19:38:06.310Z,11.80
2017-11-14T19:40:34.649Z,11.80
2017-11-14T19:43:02.972Z,11.90
2017-11-14T19:45:31.287Z,11.90
2017-11-14T19:47:59.617Z,11.90
2017-11-14T19:50:28.692Z,11.80
2017-11-14T19:52:57.063Z,11.80
2017-11-14T19:55:25.397Z,11.80
2017-11-14T19:57:53.710Z,11.80
2017-11-14T20:00:22.059Z,11.70
2017-11-14T20:02:50.373Z,11.70
2017-11-14T20:05:18.694Z,11.70
2017-11-14T20:07:46.995Z,11.70
2017-11-14T20:10:16.107Z,11.70
2017-11-14T20:12:45.174Z,11.60
2017-11-14T20:15:13.515Z,11.60
2017-11-14T20:17:41.861Z,11.60
2017-11-14T20:20:10.185Z,11.60
2017-11-14T20:22:38.493Z,11.60
2017-11-14T20:25:06.820Z,11.60
2017-11-14T20:27:35.157Z,11.60
2017-11-14T20:30:03.475Z,11.50
2017-11-14T20:32:31.773Z,11.60
2017-11-14T20:35:00.081Z,11.60
2017-11-14T20:37:29.213Z,11.60
2017-11-14T20:39:57.537Z,11.50
2017-11-14T20:42:25.853Z,11.50
2017-11-14T20:44:54.172Z,11.50
2017-11-14T20:47:23.330Z,11.50
2017-11-14T20:49:51.645Z,11.50
2017-11-14T20:52:20.007Z,11.50
2017-11-14T20:54:48.353Z,11.50
2017-11-14T20:57:17.436Z,11.60
2017-11-14T20:59:45.740Z,11.60
2017-11-14T21:02:14.085Z,11.50
2017-11-14T21:04:43.181Z,11.50
2017-11-14T21:07:12.239Z,11.50
2017-11-14T21:09:40.562Z,11.50
2017-11-14T21:12:09.650Z,11.50
2017-11-14T21:14:38.737Z,11.50
2017-11-14T21:17:07.056Z,11.50
2017-11-14T21:19:35.376Z,11.50
2017-11-14T21:22:03.732Z,11.50
2017-11-14T21:24:32.050Z,11.50
2017-11-14T21:27:00.381Z,11.50
2017-11-14T21:29:28.685Z,11.50
2017-11-14T21:31:57.762Z,11.50
2017-11-14T21:34:26.079Z,11.50
2017-11-14T21:36:54.381Z,11.50
2017-11-14T21:39:22.721Z,11.50
2017-11-14T21:41:51.046Z,11.50
2017-11-14T21:44:19.353Z,11.50
2017-11-14T21:46:48.459Z,11.50
2017-11-14T21:49:17.538Z,11.50
2017-11-14T21:51:45.867Z,11.50
2017-11-14T21:54:14.197Z,11.50
2017-11-14T21:56:42.502Z,11.50
2017-11-14T21:59:11.582Z,11.40
2017-11-14T22:01:39.919Z,11.40
2017-11-14T22:04:08.242Z,11.40
2017-11-14T22:06:36.561Z,11.40
2017-11-14T22:09:04.905Z,11.40
2017-11-14T22:11:33.220Z,11.40
2017-11-14T22:14:02.317Z,11.50
2017-11-14T22:16:31.402Z,11.50
2017-11-14T22:19:00.543Z,11.50
2017-11-14T22:21:28.850Z,11.40
2017-11-14T22:23:57.176Z,11.50
2017-11-14T22:26:26.261Z,11.40
2017-11-14T22:28:54.574Z,11.50
2017-11-14T22:31:22.888Z,11.40
2017-11-14T22:33:51.176Z,11.40
2017-11-14T22:36:19.499Z,11.40
2017-11-14T22:38:48.614Z,11.40
2017-11-14T22:41:16.930Z,11.40
2017-11-14T22:43:45.236Z,11.30
2017-11-14T22:46:13.541Z,11.30
2017-11-14T22:48:42.700Z,11.30
2017-11-14T22:51:11.031Z,11.30
2017-11-14T22:53:40.125Z,11.30
2017-11-14T22:56:09.211Z,11.40
2017-11-14T22:58:37.523Z,11.40
2017-11-14T23:01:05.840Z,11.40
2017-11-14T23:03:34.339Z,11.40
2017-11-14T23:06:02.668Z,11.40
2017-11-14T23:08:31.000Z,11.40
2017-11-14T23:10:59.299Z,11.40
2017-11-14T23:13:27.626Z,11.40
2017-11-14T23:15:55.921Z,11.50
2017-11-14T23:18:24.245Z,11.50
2017-11-14T23:20:53.336Z,11.50
2017-11-14T23:23:21.663Z,11.50
2017-11-14T23:25:49.986Z,11.50
2017-11-14T23:28:18.383Z,11.50
2017-11-14T23:30:46.716Z,11.50
2017-11-14T23:33:15.045Z,11.40
2017-11-14T23:35:43.376Z,11.40
2017-11-14T23:38:11.693Z,11.40
2017-11-14T23:40:40.014Z,11.40
2017-11-14T23:43:09.105Z,11.40
2017-11-14T23:45:37.429Z,11.40
2017-11-14T23:48:05.741Z,11.40
2017-11-14T23:50:34.080Z,11.40
2017-11-14T23:53:03.528Z,11.40
2017-11-14T23:55:31.854Z,11.40
2017-11-14T23:58:01.242Z,11.40
